Time;durP1;ratioP1;P1;durP2;ratioP2;P2;SDS_P1;SDS_P2;PMS_P1;PMS_P2;Temp;Humidity;BMP_temperature;BMP_pressure;BME280_temperature;BME280_humidity;BME280_pressure;Samples;Min_cycle;Max_cycle;Signal;HPM_P1;HPM_P2
2023/11/23 00:00:19;;;;;;;39.78;24.38;;;-0.50;92.70;;;;;;6210608;23;20028;-81
2023/11/23 00:03:08;;;;;;;42.63;25.48;;;-0.60;90.80;;;;;;6214453;23;20052;-82
2023/11/23 00:05:58;;;;;;;45.83;25.58;;;-0.60;99.20;;;;;;6215329;23;20384;-81
2023/11/23 00:08:46;;;;;;;45.75;26.88;;;-0.60;99.90;;;;;;6214944;23;20039;-82
2023/11/23 00:11:33;;;;;;;47.17;27.02;;;-0.60;99.90;;;;;;6214013;23;20099;-81
2023/11/23 00:14:20;;;;;;;47.10;27.10;;;-0.60;99.90;;;;;;6212225;23;20029;-81
2023/11/23 00:17:08;;;;;;;47.25;27.30;;;-0.60;99.90;;;;;;6211394;23;20319;-81
2023/11/23 00:19:56;;;;;;;49.38;27.00;;;-0.70;99.90;;;;;;6212434;23;20096;-82
2023/11/23 00:22:43;;;;;;;47.00;26.85;;;-0.80;99.90;;;;;;6211052;23;20119;-80
2023/11/23 00:25:30;;;;;;;46.83;25.92;;;-0.80;99.90;;;;;;6211321;23;20055;-82
2023/11/23 00:28:19;;;;;;;48.83;28.13;;;-0.80;99.90;;;;;;6191082;23;20024;-82
2023/11/23 00:31:06;;;;;;;45.00;26.50;;;-0.80;99.90;;;;;;6211481;23;20088;-81
2023/11/23 00:33:56;;;;;;;48.40;29.02;;;-0.70;99.90;;;;;;6211598;23;20039;-81
2023/11/23 00:36:43;;;;;;;50.25;27.88;;;-0.80;99.90;;;;;;6190869;23;20028;-81
2023/11/23 00:39:33;;;;;;;40.05;23.85;;;-0.90;99.90;;;;;;6214479;23;20420;-80
2023/11/23 00:42:24;;;;;;;41.40;23.40;;;-1.00;99.90;;;;;;6222268;23;20039;-81
2023/11/23 00:45:14;;;;;;;44.22;25.90;;;-1.10;99.90;;;;;;6225965;23;20044;-82
2023/11/23 00:48:02;;;;;;;44.35;25.48;;;-1.10;99.90;;;;;;6205988;23;20399;-81
2023/11/23 00:50:54;;;;;;;49.00;27.33;;;-1.20;99.90;;;;;;6230196;23;20028;-82
2023/11/23 00:53:42;;;;;;;56.00;29.33;;;-1.10;99.90;;;;;;6232577;23;20020;-80
2023/11/23 00:56:29;;;;;;;57.80;31.40;;;-0.90;99.90;;;;;;6231521;23;20025;-80
2023/11/23 00:59:16;;;;;;;55.33;30.00;;;-0.70;99.90;;;;;;6228829;22;20139;-81
2023/11/23 01:02:04;;;;;;;53.90;29.25;;;-0.60;99.90;;;;;;6227105;23;20024;-80
2023/11/23 01:04:51;;;;;;;58.33;29.77;;;-0.60;99.90;;;;;;6223875;23;20466;-80
2023/11/23 01:07:39;;;;;;;51.25;29.30;;;-0.50;99.90;;;;;;6217163;23;20354;-82
2023/11/23 01:10:28;;;;;;;50.42;29.55;;;-0.40;99.90;;;;;;6212436;23;20035;-81
2023/11/23 01:13:18;;;;;;;47.95;28.45;;;-0.40;99.90;;;;;;6213279;23;20024;-81
2023/11/23 01:16:05;;;;;;;50.42;29.23;;;-0.30;99.90;;;;;;6211978;23;20127;-82
2023/11/23 01:18:53;;;;;;;48.60;28.35;;;-0.20;99.90;;;;;;6213248;23;20028;-78
2023/11/23 01:21:42;;;;;;;49.65;28.88;;;-0.20;99.90;;;;;;6214874;23;20034;-82
2023/11/23 01:24:29;;;;;;;50.92;26.75;;;-0.20;99.90;;;;;;6213277;23;20021;-81
2023/11/23 01:27:19;;;;;;;43.33;26.58;;;-0.20;99.90;;;;;;6213213;23;20038;-81
2023/11/23 01:30:09;;;;;;;46.40;27.30;;;-0.20;99.90;;;;;;6212069;23;20024;-81
2023/11/23 01:32:59;;;;;;;41.50;24.48;;;-0.10;99.90;;;;;;6212709;23;20025;-81
2023/11/23 01:35:50;;;;;;;44.83;24.73;;;-0.20;99.90;;;;;;6192515;23;20048;-82
2023/11/23 01:38:40;;;;;;;44.53;25.60;;;-0.20;99.90;;;;;;6212113;23;20017;-82
2023/11/23 01:41:27;;;;;;;43.45;24.67;;;-0.20;99.90;;;;;;6213549;23;20369;-81
2023/11/23 01:44:15;;;;;;;43.30;25.20;;;-0.20;99.90;;;;;;6211068;23;20426;-82
2023/11/23 01:47:04;;;;;;;42.63;24.13;;;-0.20;99.90;;;;;;6212252;23;20025;-81
2023/11/23 01:49:53;;;;;;;45.25;25.05;;;-0.20;99.90;;;;;;6190489;23;20039;-81
2023/11/23 01:52:42;;;;;;;42.50;24.42;;;-0.10;99.90;;;;;;6212150;23;20029;-81
2023/11/23 01:55:31;;;;;;;39.70;23.85;;;-0.10;99.90;;;;;;6210616;23;20047;-82
2023/11/23 01:58:21;;;;;;;43.17;25.42;;;-0.10;99.90;;;;;;6211472;23;20025;-82
2023/11/23 02:01:14;;;;;;;42.20;24.42;;;-0.10;99.90;;;;;;6213118;23;20069;-80
2023/11/23 02:04:04;;;;;;;41.55;24.17;;;-0.10;99.90;;;;;;6212516;23;20316;-82
2023/11/23 02:06:54;;;;;;;38.08;22.73;;;-0.10;99.90;;;;;;6211033;23;20608;-81
2023/11/23 02:09:41;;;;;;;43.15;23.55;;;-0.10;99.90;;;;;;6211496;23;20372;-80
2023/11/23 02:12:29;;;;;;;40.28;24.23;;;-0.10;99.90;;;;;;6211957;23;20032;-80
2023/11/23 02:15:17;;;;;;;42.15;24.02;;;-0.10;99.90;;;;;;6191987;23;20304;-81
2023/11/23 02:18:08;;;;;;;41.92;23.67;;;-0.10;99.90;;;;;;6193761;23;20307;-81
2023/11/23 02:20:58;;;;;;;38.53;22.50;;;-0.20;99.90;;;;;;6216935;23;20020;-82
2023/11/23 02:23:47;;;;;;;36.88;22.08;;;-0.30;99.90;;;;;;6196052;23;20023;-83
2023/11/23 02:26:35;;;;;;;41.83;23.48;;;-0.30;99.90;;;;;;6218648;23;20039;-82
2023/11/23 02:29:22;;;;;;;42.75;24.40;;;-0.30;99.90;;;;;;6223485;23;20285;-80
2023/11/23 02:32:11;;;;;;;40.45;22.85;;;-0.40;99.90;;;;;;6200615;23;20055;-81
2023/11/23 02:35:00;;;;;;;43.78;23.88;;;-0.30;99.90;;;;;;6219825;23;20399;-81
2023/11/23 02:37:48;;;;;;;44.50;23.25;;;-0.40;99.90;;;;;;6212877;23;20099;-81
2023/11/23 02:40:37;;;;;;;43.40;24.27;;;-0.40;99.90;;;;;;6212434;23;20114;-80
2023/11/23 02:43:25;;;;;;;40.75;23.70;;;-0.50;99.90;;;;;;6211820;23;20029;-81
2023/11/23 02:46:13;;;;;;;43.95;24.13;;;-0.50;99.90;;;;;;6191525;23;20033;-82
2023/11/23 02:49:06;;;;;;;41.70;24.17;;;-0.40;99.90;;;;;;6212765;23;20099;-81
2023/11/23 02:51:53;;;;;;;43.45;23.95;;;-0.40;99.90;;;;;;6213163;23;20028;-78
2023/11/23 02:54:41;;;;;;;43.08;24.27;;;-0.50;99.90;;;;;;6214332;23;20028;-81
2023/11/23 02:57:28;;;;;;;46.72;25.55;;;-0.40;99.90;;;;;;6192791;23;20024;-81
2023/11/23 03:00:15;;;;;;;44.17;23.90;;;-0.50;99.90;;;;;;6212728;23;20418;-82
2023/11/23 03:03:05;;;;;;;46.58;24.42;;;-0.50;99.90;;;;;;6213636;23;20029;-82
2023/11/23 03:05:54;;;;;;;47.40;24.58;;;-0.50;99.90;;;;;;6212749;23;20086;-81
2023/11/23 03:08:43;;;;;;;48.50;25.23;;;-0.50;99.90;;;;;;6193063;23;20035;-82
2023/11/23 03:11:31;;;;;;;48.00;24.65;;;-0.50;99.90;;;;;;6213428;23;20025;-81
2023/11/23 03:14:18;;;;;;;43.85;24.33;;;-0.60;99.90;;;;;;6213000;23;20024;-82
2023/11/23 03:17:08;;;;;;;48.10;24.70;;;-0.60;99.90;;;;;;6212887;23;20020;-81
2023/11/23 03:19:55;;;;;;;47.05;25.33;;;-0.60;99.90;;;;;;6213876;23;20106;-81
2023/11/23 03:22:45;;;;;;;46.10;24.25;;;-0.60;99.90;;;;;;6193558;23;20107;-80
2023/11/23 03:25:34;;;;;;;47.63;24.73;;;-0.60;99.90;;;;;;6191155;23;20024;-81
2023/11/23 03:28:22;;;;;;;47.10;24.77;;;-0.60;99.90;;;;;;6213022;23;20024;-82
2023/11/23 03:31:09;;;;;;;46.35;23.95;;;-0.50;99.90;;;;;;6210918;23;20028;-82
2023/11/23 03:33:57;;;;;;;43.72;23.85;;;-0.60;99.90;;;;;;6189382;23;20104;-82
2023/11/23 03:36:46;;;;;;;44.08;23.58;;;-0.60;99.90;;;;;;6214412;23;20056;-81
2023/11/23 03:39:34;;;;;;;46.05;23.88;;;-0.70;99.90;;;;;;6192309;23;20115;-82
2023/11/23 03:42:21;;;;;;;44.05;23.52;;;-0.60;99.90;;;;;;6189186;23;20020;-83
2023/11/23 03:45:08;;;;;;;42.35;22.73;;;-0.60;99.90;;;;;;6210745;23;20364;-79
2023/11/23 03:48:00;;;;;;;44.53;23.35;;;-0.70;99.90;;;;;;6214613;23;20056;-81
2023/11/23 03:50:48;;;;;;;44.25;22.67;;;-0.70;99.90;;;;;;6211548;23;20067;-81
2023/11/23 03:53:35;;;;;;;42.50;21.90;;;-0.70;99.90;;;;;;6212171;23;20059;-82
2023/11/23 03:56:22;;;;;;;40.60;21.73;;;-0.60;99.90;;;;;;6212272;23;20024;-82
2023/11/23 03:59:09;;;;;;;43.50;22.02;;;-0.60;99.90;;;;;;6214256;23;20027;-81
2023/11/23 04:01:56;;;;;;;41.90;22.38;;;-0.60;99.90;;;;;;6214052;23;20029;-82
2023/11/23 04:04:44;;;;;;;36.22;19.65;;;-0.60;99.90;;;;;;6213373;23;20063;-79
2023/11/23 04:07:34;;;;;;;40.30;20.85;;;-0.60;99.90;;;;;;6212049;23;20040;-81
2023/11/23 04:10:21;;;;;;;36.97;20.70;;;-0.50;99.90;;;;;;6213409;23;20039;-81
2023/11/23 04:13:09;;;;;;;36.97;20.15;;;-0.50;99.90;;;;;;6213014;23;20036;-82
2023/11/23 04:15:57;;;;;;;35.65;19.13;;;-0.50;99.90;;;;;;6211498;23;20029;-82
2023/11/23 04:18:44;;;;;;;42.22;20.98;;;-0.60;99.90;;;;;;6211344;23;20640;-81
2023/11/23 04:21:32;;;;;;;37.78;19.83;;;-0.60;99.90;;;;;;6213729;23;20028;-81
2023/11/23 04:24:19;;;;;;;35.95;19.70;;;-0.70;99.90;;;;;;6192657;23;20025;-82
2023/11/23 04:27:09;;;;;;;34.78;19.30;;;-0.70;99.90;;;;;;6190656;23;20024;-82
2023/11/23 04:29:58;;;;;;;34.17;18.38;;;-0.70;99.90;;;;;;6213133;23;20036;-82
2023/11/23 04:32:46;;;;;;;33.28;18.08;;;-0.60;99.90;;;;;;6213610;23;20024;-82
2023/11/23 04:35:34;;;;;;;34.55;18.80;;;-0.60;99.90;;;;;;6211683;23;20163;-81
2023/11/23 04:38:21;;;;;;;32.63;17.40;;;-0.60;99.90;;;;;;6212075;23;20122;-81
2023/11/23 04:41:09;;;;;;;36.05;17.55;;;-0.60;99.90;;;;;;6212232;23;20027;-81
2023/11/23 04:43:56;;;;;;;32.60;17.23;;;-0.60;99.90;;;;;;6212355;23;20544;-81
2023/11/23 04:46:43;;;;;;;30.90;17.08;;;-0.60;99.90;;;;;;6188799;23;20197;-82
2023/11/23 04:49:32;;;;;;;33.05;17.98;;;-0.50;99.90;;;;;;6212439;23;20039;-82
2023/11/23 04:52:19;;;;;;;32.30;17.63;;;-0.50;99.90;;;;;;6189039;23;20028;-81
2023/11/23 04:55:07;;;;;;;31.75;16.85;;;-0.50;99.90;;;;;;6212375;23;20296;-82
2023/11/23 04:57:57;;;;;;;30.92;17.13;;;-0.40;99.90;;;;;;6211736;23;20036;-82
2023/11/23 05:00:49;;;;;;;31.30;17.30;;;-0.40;99.90;;;;;;6212930;23;20028;-82
2023/11/23 05:03:36;;;;;;;33.50;17.92;;;-0.50;99.90;;;;;;6214318;23;20035;-82
2023/11/23 05:06:27;;;;;;;33.55;18.08;;;-0.50;99.90;;;;;;6214762;23;20289;-82
2023/11/23 05:09:14;;;;;;;33.67;19.05;;;-0.60;99.90;;;;;;6212801;23;20029;-82
2023/11/23 05:12:01;;;;;;;38.13;20.30;;;-0.60;99.90;;;;;;6211801;23;20020;-82
2023/11/23 05:14:51;;;;;;;40.22;19.92;;;-0.60;99.90;;;;;;6211031;23;20032;-82
2023/11/23 05:17:40;;;;;;;33.75;18.40;;;-0.60;99.90;;;;;;6211536;23;20020;-81
2023/11/23 05:20:30;;;;;;;37.72;19.92;;;-0.60;99.90;;;;;;6211685;23;20021;-80
2023/11/23 05:23:17;;;;;;;36.67;18.67;;;-0.60;99.90;;;;;;6211514;23;20396;-81
2023/11/23 05:26:05;;;;;;;36.22;18.33;;;-0.60;99.90;;;;;;6213402;23;20342;-81
2023/11/23 05:28:52;;;;;;;31.73;17.38;;;-0.50;99.90;;;;;;6210550;23;20035;-80
2023/11/23 05:31:42;;;;;;;36.63;18.38;;;-0.50;99.90;;;;;;6211111;23;20025;-80
2023/11/23 05:34:30;;;;;;;36.22;17.88;;;-0.50;99.90;;;;;;6190357;23;20028;-82
2023/11/23 05:37:20;;;;;;;33.88;18.85;;;-0.50;99.90;;;;;;6190488;23;20035;-81
2023/11/23 05:40:12;;;;;;;34.38;18.70;;;-0.50;99.90;;;;;;6212123;23;20024;-77
2023/11/23 05:43:02;;;;;;;32.65;17.73;;;-0.60;99.90;;;;;;6190840;23;20025;-80
2023/11/23 05:45:52;;;;;;;39.55;19.20;;;-0.60;99.90;;;;;;6213644;23;20021;-81
2023/11/23 05:48:41;;;;;;;32.55;17.95;;;-0.60;99.90;;;;;;6211975;23;20025;-81
2023/11/23 05:51:28;;;;;;;33.97;18.27;;;-0.60;99.90;;;;;;6213597;23;20056;-79
2023/11/23 05:54:16;;;;;;;32.78;18.00;;;-0.50;99.90;;;;;;6194641;23;20032;-79
2023/11/23 05:57:07;;;;;;;34.20;17.77;;;-0.50;99.90;;;;;;6215311;23;20048;-82
2023/11/23 05:59:55;;;;;;;24.67;13.33;;;-0.50;99.90;;;;;;6215361;23;20153;-81
2023/11/23 06:02:45;;;;;;;34.08;17.98;;;-0.60;99.90;;;;;;6212224;23;20239;-82
2023/11/23 06:05:32;;;;;;;32.50;17.70;;;-0.60;99.90;;;;;;6191490;23;20032;-80
2023/11/23 06:08:20;;;;;;;33.47;18.35;;;-0.60;99.90;;;;;;6213881;23;20446;-81
2023/11/23 06:11:07;;;;;;;29.45;17.25;;;-0.60;99.90;;;;;;6214206;23;20043;-82
2023/11/23 06:13:54;;;;;;;31.30;17.60;;;-0.60;99.90;;;;;;6213049;23;20175;-81
2023/11/23 06:16:41;;;;;;;28.23;16.80;;;-0.50;99.90;;;;;;6212715;23;20035;-81
2023/11/23 06:19:28;;;;;;;31.95;17.80;;;-0.50;99.90;;;;;;6192590;23;20032;-81
2023/11/23 06:22:15;;;;;;;31.27;16.90;;;-0.60;99.90;;;;;;6212834;23;20024;-82
2023/11/23 06:25:03;;;;;;;27.67;16.20;;;-0.60;99.90;;;;;;6211992;23;20025;-80
2023/11/23 06:27:51;;;;;;;29.38;17.20;;;-0.60;99.90;;;;;;6213154;23;20110;-80
2023/11/23 06:30:47;;;;;;;29.27;16.73;;;-0.70;99.90;;;;;;6193988;23;20358;-78
2023/11/23 06:33:34;;;;;;;30.60;17.17;;;-0.70;99.90;;;;;;6195138;23;20038;-80
2023/11/23 06:36:22;;;;;;;26.55;15.00;;;-0.60;99.90;;;;;;6213147;23;20047;-80
2023/11/23 06:39:09;;;;;;;26.27;15.43;;;-0.60;99.90;;;;;;6170784;23;20048;-82
2023/11/23 06:41:59;;;;;;;35.08;16.23;;;-0.60;99.90;;;;;;6213822;23;20260;-82
2023/11/23 06:44:46;;;;;;;30.10;16.48;;;-0.60;99.90;;;;;;6213746;23;20024;-83
2023/11/23 06:47:36;;;;;;;27.20;15.95;;;-0.60;99.90;;;;;;6214237;23;20024;-82
2023/11/23 06:50:23;;;;;;;26.85;15.55;;;-0.50;99.90;;;;;;6191555;23;20158;-82
2023/11/23 06:53:11;;;;;;;24.70;14.98;;;-0.50;99.90;;;;;;6213485;23;20024;-81
2023/11/23 06:56:02;;;;;;;25.38;15.45;;;-0.40;99.90;;;;;;6212351;23;20032;-81
2023/11/23 06:58:51;;;;;;;24.17;14.18;;;-0.20;99.90;;;;;;6213070;23;20438;-82
2023/11/23 07:01:38;;;;;;;24.92;15.27;;;-0.20;99.90;;;;;;6212192;23;20020;-82
2023/11/23 07:04:25;;;;;;;23.08;13.40;;;-0.10;99.90;;;;;;6212581;23;20534;-82
2023/11/23 07:07:13;;;;;;;22.75;14.32;;;0.00;99.90;;;;;;6213118;23;20036;-83
2023/11/23 07:10:02;;;;;;;24.42;12.35;;;0.10;99.90;;;;;;6213757;23;20419;-78
2023/11/23 07:12:51;;;;;;;19.52;12.35;;;0.10;99.90;;;;;;6215937;23;20103;-82
2023/11/23 07:15:41;;;;;;;17.52;11.45;;;0.20;99.90;;;;;;6190810;23;20490;-82
2023/11/23 07:18:31;;;;;;;16.85;10.05;;;0.20;99.90;;;;;;6213490;23;20034;-79
2023/11/23 07:21:19;;;;;;;14.88;9.40;;;0.20;99.90;;;;;;6215916;23;20052;-80
2023/11/23 07:24:09;;;;;;;14.60;9.32;;;0.20;99.90;;;;;;6194586;23;20031;-82
2023/11/23 07:26:59;;;;;;;20.00;10.02;;;0.20;99.90;;;;;;6214413;23;20036;-83
2023/11/23 07:29:47;;;;;;;12.90;8.73;;;0.20;99.90;;;;;;6191189;23;20335;-82
2023/11/23 07:32:35;;;;;;;11.95;8.32;;;0.30;99.90;;;;;;6215236;23;20024;-80
2023/11/23 07:35:24;;;;;;;17.63;10.43;;;0.40;99.90;;;;;;6216085;23;20035;-82
2023/11/23 07:38:12;;;;;;;13.18;8.63;;;0.40;99.90;;;;;;6190944;23;20423;-82
2023/11/23 07:41:06;;;;;;;13.48;8.27;;;0.40;99.90;;;;;;6193229;23;20028;-81
2023/11/23 07:43:57;;;;;;;11.97;7.80;;;0.30;99.90;;;;;;6214802;23;20024;-82
2023/11/23 07:46:46;;;;;;;16.20;9.05;;;0.30;99.90;;;;;;6213702;23;20243;-82
2023/11/23 07:49:33;;;;;;;13.95;8.48;;;0.50;99.90;;;;;;6213946;23;20028;-81
2023/11/23 07:52:21;;;;;;;12.68;8.90;;;0.70;99.90;;;;;;6213882;23;20025;-82
2023/11/23 07:55:10;;;;;;;15.43;9.93;;;0.80;99.90;;;;;;6193163;23;20293;-81
2023/11/23 07:57:58;;;;;;;15.43;9.77;;;0.70;97.10;;;;;;6213787;23;20114;-81
2023/11/23 08:00:45;;;;;;;14.15;9.23;;;0.70;76.30;;;;;;6212994;23;20324;-81
2023/11/23 08:03:33;;;;;;;14.90;9.48;;;0.70;46.70;;;;;;6214133;23;20079;-81
2023/11/23 08:06:20;;;;;;;13.90;9.18;;;0.70;31.80;;;;;;6214056;23;20035;-81
2023/11/23 08:09:14;;;;;;;17.65;9.93;;;0.70;21.10;;;;;;6210949;23;20040;-80
2023/11/23 08:12:04;;;;;;;14.73;8.77;;;0.90;25.20;;;;;;6213885;23;20056;-81
2023/11/23 08:14:51;;;;;;;11.48;7.97;;;1.40;1.00;;;;;;6215849;23;20323;-81
2023/11/23 08:17:40;;;;;;;13.32;8.75;;;1.60;99.90;;;;;;6215165;23;20573;-81
2023/11/23 08:20:39;;;;;;;12.02;7.93;;;1.60;99.90;;;;;;6213950;23;20099;-80
2023/11/23 08:23:29;;;;;;;10.55;6.90;;;1.60;99.90;;;;;;6191580;23;20028;-82
2023/11/23 08:26:16;;;;;;;11.98;7.60;;;1.70;99.90;;;;;;6213364;23;20037;-82
2023/11/23 08:29:05;;;;;;;12.32;8.13;;;2.20;1.00;;;;;;6191487;23;20366;-83
2023/11/23 08:31:52;;;;;;;10.82;7.32;;;2.60;99.90;;;;;;6214119;23;20039;-83
2023/11/23 08:34:39;;;;;;;10.25;7.18;;;2.80;99.90;;;;;;6190396;23;20020;-82
2023/11/23 08:37:30;;;;;;;9.40;6.40;;;2.80;99.90;;;;;;6212971;23;20028;-82
2023/11/23 08:40:17;;;;;;;24.15;11.65;;;2.70;99.90;;;;;;6190342;23;20024;-80
2023/11/23 08:43:06;;;;;;;8.73;5.72;;;3.10;1.00;;;;;;6191149;23;20462;-83
2023/11/23 08:45:53;;;;;;;8.60;6.30;;;3.20;99.90;;;;;;6213164;23;20455;-82
2023/11/23 08:48:41;;;;;;;7.75;5.32;;;3.10;1.00;;;;;;6190677;23;20051;-80
2023/11/23 08:51:34;;;;;;;7.72;6.00;;;3.00;99.90;;;;;;6215995;23;20103;-82
2023/11/23 08:54:22;;;;;;;8.25;5.95;;;2.90;99.90;;;;;;6213516;23;20028;-82
2023/11/23 08:57:11;;;;;;;9.30;7.00;;;2.90;99.90;;;;;;6215363;23;20036;-82
2023/11/23 09:00:02;;;;;;;8.57;6.43;;;2.80;99.90;;;;;;6189967;23;20110;-83
2023/11/23 09:02:54;;;;;;;9.40;6.35;;;2.80;99.90;;;;;;6214047;23;20079;-82
2023/11/23 09:05:44;;;;;;;9.70;6.97;;;2.80;99.90;;;;;;6210838;23;20025;-82
2023/11/23 09:08:32;;;;;;;13.90;7.30;;;2.80;99.90;;;;;;6212861;23;20055;-82
2023/11/23 09:11:20;;;;;;;12.18;7.28;;;2.90;99.90;;;;;;6213956;23;20098;-82
2023/11/23 09:14:11;;;;;;;9.00;6.47;;;2.90;99.90;;;;;;6211080;23;20118;-82
2023/11/23 09:17:02;;;;;;;15.25;7.30;;;3.00;99.90;;;;;;6213778;23;20028;-82
2023/11/23 09:19:50;;;;;;;10.45;6.95;;;3.00;99.90;;;;;;6213993;23;20028;-82
2023/11/23 09:22:37;;;;;;;11.68;7.93;;;3.10;99.90;;;;;;6213725;23;20021;-82
2023/11/23 09:25:29;;;;;;;11.35;7.47;;;3.10;1.00;;;;;;6213406;23;20025;-81
2023/11/23 09:28:20;;;;;;;9.25;6.13;;;3.20;90.30;;;;;;6214124;23;20032;-83
2023/11/23 09:31:08;;;;;;;11.70;7.30;;;3.40;52.80;;;;;;6191171;23;20099;-81
2023/11/23 09:33:55;;;;;;;10.60;7.40;;;3.60;1.00;;;;;;6213153;23;20035;-80
2023/11/23 09:36:43;;;;;;;11.70;6.65;;;3.60;1.00;;;;;;6214995;23;20028;-83
2023/11/23 09:39:34;;;;;;;12.65;7.40;;;3.50;1.00;;;;;;6208818;23;20712;-82
2023/11/23 09:42:24;;;;;;;8.35;6.75;;;3.50;1.00;;;;;;6191419;23;20036;-81
2023/11/23 09:45:14;;;;;;;9.82;7.07;;;3.60;1.00;;;;;;6215019;23;20025;-82
2023/11/23 09:48:04;;;;;;;12.32;6.93;;;3.70;1.00;;;;;;6192134;23;20378;-82
2023/11/23 09:50:52;;;;;;;8.45;6.32;;;3.80;1.00;;;;;;6212539;23;20107;-79
2023/11/23 09:53:43;;;;;;;9.10;7.18;;;3.80;99.90;;;;;;6212110;23;20107;-82
2023/11/23 09:56:31;;;;;;;15.00;6.78;;;3.80;1.00;;;;;;6212228;23;20036;-81
2023/11/23 09:59:20;;;;;;;10.23;6.70;;;4.00;99.90;;;;;;6214181;23;20024;-82
2023/11/23 10:02:13;;;;;;;12.05;6.78;;;4.20;99.90;;;;;;6211168;23;20056;-82
2023/11/23 10:05:01;;;;;;;10.55;6.65;;;4.20;99.90;;;;;;6191086;23;20024;-81
2023/11/23 10:07:55;;;;;;;9.75;6.97;;;4.20;99.90;;;;;;6213126;23;20281;-82
2023/11/23 10:10:42;;;;;;;10.40;6.25;;;4.30;95.40;;;;;;6213474;23;20364;-82
2023/11/23 10:13:29;;;;;;;8.45;5.78;;;4.60;1.00;;;;;;6213552;23;20439;-81
2023/11/23 10:16:17;;;;;;;9.88;5.97;;;5.10;99.90;;;;;;6212703;23;20284;-81
2023/11/23 10:19:05;;;;;;;9.43;5.72;;;5.20;99.90;;;;;;6212585;23;20029;-81
2023/11/23 10:21:59;;;;;;;11.05;6.45;;;5.30;1.00;;;;;;6213729;23;20081;-79
2023/11/23 10:24:48;;;;;;;13.23;6.05;;;5.30;99.90;;;;;;6213247;23;20371;-78
2023/11/23 10:27:36;;;;;;;9.95;6.32;;;5.20;99.90;;;;;;6192879;23;20020;-82
2023/11/23 10:30:25;;;;;;;8.73;5.88;;;5.20;99.90;;;;;;6213880;23;20307;-82
2023/11/23 10:33:14;;;;;;;9.43;6.13;;;5.10;99.90;;;;;;6213186;23;20052;-83
2023/11/23 10:36:06;;;;;;;8.98;6.13;;;4.90;99.90;;;;;;6192212;23;20020;-82
2023/11/23 10:38:56;;;;;;;11.43;5.90;;;4.80;99.90;;;;;;6215804;23;20434;-82
2023/11/23 10:41:47;;;;;;;12.85;6.53;;;4.60;99.90;;;;;;6216332;23;20342;-82
2023/11/23 10:44:35;;;;;;;9.93;6.40;;;4.60;1.00;;;;;;6215235;23;20024;-82
2023/11/23 10:47:27;;;;;;;8.98;6.22;;;4.50;1.00;;;;;;6215612;23;20120;-82
2023/11/23 10:50:15;;;;;;;7.47;4.83;;;4.40;30.70;;;;;;6216151;23;20458;-83
2023/11/23 10:53:03;;;;;;;8.35;6.60;;;4.40;99.90;;;;;;6215368;23;20244;-81
2023/11/23 10:55:51;;;;;;;7.32;6.18;;;4.40;99.90;;;;;;6215633;23;20043;-82
2023/11/23 10:58:40;;;;;;;8.18;6.10;;;4.40;99.90;;;;;;6215143;23;20035;-83
2023/11/23 11:01:29;;;;;;;8.60;6.15;;;4.30;99.90;;;;;;6216233;23;20096;-82
2023/11/23 11:04:19;;;;;;;7.88;6.10;;;4.40;99.90;;;;;;6214271;23;20075;-78
2023/11/23 11:07:08;;;;;;;8.93;6.15;;;4.50;99.90;;;;;;6215646;23;20025;-81
2023/11/23 11:10:05;;;;;;;10.52;5.88;;;4.50;99.90;;;;;;6213037;23;20099;-82
2023/11/23 11:13:05;;;;;;;9.38;6.18;;;4.60;99.90;;;;;;6215407;23;20414;-82
2023/11/23 11:16:06;;;;;;;10.73;6.88;;;4.70;99.90;;;;;;6214380;23;20029;-82
2023/11/23 11:19:06;;;;;;;7.70;5.75;;;4.80;99.90;;;;;;6214688;23;20024;-81
2023/11/23 11:22:00;;;;;;;11.50;7.38;;;4.80;99.90;;;;;;6216213;23;20024;-82
2023/11/23 11:24:57;;;;;;;7.18;5.40;;;4.80;99.90;;;;;;6214861;23;20031;-83
2023/11/23 11:27:45;;;;;;;9.55;6.60;;;4.90;1.00;;;;;;6217576;23;20024;-83
2023/11/23 11:30:39;;;;;;;7.22;5.15;;;5.00;99.90;;;;;;6216688;23;20047;-83
2023/11/23 11:33:26;;;;;;;7.63;5.27;;;5.00;99.90;;;;;;6213661;23;20467;-79
2023/11/23 11:36:18;;;;;;;10.70;5.90;;;5.00;99.90;;;;;;6192613;23;20036;-80
2023/11/23 11:39:06;;;;;;;9.35;5.07;;;5.10;99.90;;;;;;6195533;23;20103;-84
2023/11/23 11:41:59;;;;;;;6.68;4.80;;;5.20;99.90;;;;;;6193672;23;20021;-83
2023/11/23 11:44:48;;;;;;;6.30;4.70;;;5.40;99.90;;;;;;6190762;23;20513;-81
2023/11/23 11:47:39;;;;;;;10.25;5.88;;;5.40;99.90;;;;;;6212710;23;20025;-82
2023/11/23 11:50:29;;;;;;;8.30;5.35;;;5.40;99.90;;;;;;6215018;23;20028;-81
2023/11/23 11:53:18;;;;;;;7.07;4.82;;;5.30;99.90;;;;;;6216011;23;20025;-82
2023/11/23 11:56:06;;;;;;;8.23;4.68;;;5.30;99.90;;;;;;6215901;23;20403;-82
2023/11/23 11:58:56;;;;;;;6.68;4.40;;;5.40;99.90;;;;;;6212961;23;20035;-81
2023/11/23 12:01:44;;;;;;;8.05;3.78;;;5.40;99.90;;;;;;6214971;23;20031;-82
2023/11/23 12:04:36;;;;;;;6.68;4.45;;;5.30;99.90;;;;;;6190928;23;20024;-82
2023/11/23 12:07:24;;;;;;;6.72;4.13;;;5.40;99.90;;;;;;6215500;23;20421;-82
2023/11/23 12:10:13;;;;;;;7.22;4.55;;;5.50;99.90;;;;;;6193951;23;20686;-82
2023/11/23 12:13:00;;;;;;;5.50;3.63;;;5.60;99.90;;;;;;6214959;23;20055;-78
2023/11/23 12:15:54;;;;;;;5.20;3.20;;;5.70;99.90;;;;;;6216573;23;20042;-78
2023/11/23 12:18:42;;;;;;;5.30;3.42;;;5.80;99.90;;;;;;6215717;23;20027;-81
2023/11/23 12:21:30;;;;;;;4.95;2.88;;;5.90;99.90;;;;;;6215227;23;20024;-81
2023/11/23 12:24:19;;;;;;;5.18;2.55;;;6.00;99.90;;;;;;6213328;23;20020;-78
2023/11/23 12:27:07;;;;;;;4.90;2.75;;;6.10;99.90;;;;;;6216272;23;20147;-81
2023/11/23 12:29:59;;;;;;;4.63;3.15;;;6.10;99.90;;;;;;6215801;23;20029;-82
2023/11/23 12:32:49;;;;;;;2.80;2.50;;;6.20;99.90;;;;;;6214824;23;20029;-80
2023/11/23 12:35:39;;;;;;;3.85;2.80;;;6.20;99.90;;;;;;6214605;23;20507;-80
2023/11/23 12:38:26;;;;;;;3.15;2.50;;;6.20;99.90;;;;;;6222443;23;20094;-80
2023/11/23 12:41:14;;;;;;;4.65;3.00;;;6.30;99.90;;;;;;6202616;23;20028;-80
2023/11/23 12:44:01;;;;;;;2.88;2.17;;;6.40;99.90;;;;;;6201840;23;20059;-81
2023/11/23 12:46:49;;;;;;;5.53;2.55;;;6.20;99.90;;;;;;6224096;23;20025;-81
2023/11/23 12:49:37;;;;;;;4.20;2.35;;;6.30;99.90;;;;;;6215450;23;20040;-81
2023/11/23 12:52:26;;;;;;;2.83;2.53;;;6.50;99.90;;;;;;6191014;23;20032;-81
2023/11/23 12:55:18;;;;;;;5.40;2.70;;;6.60;89.10;;;;;;6215864;23;20052;-81
2023/11/23 12:58:05;;;;;;;3.67;2.50;;;6.70;74.30;;;;;;6212756;23;20029;-81
2023/11/23 13:00:55;;;;;;;3.47;2.53;;;6.70;1.00;;;;;;6215467;23;20730;-81
2023/11/23 13:03:48;;;;;;;3.53;2.38;;;6.60;31.00;;;;;;6214589;23;20028;-78
2023/11/23 13:06:36;;;;;;;3.75;2.70;;;6.60;4.60;;;;;;6212047;23;20728;-81
2023/11/23 13:09:24;;;;;;;5.50;3.13;;;6.60;86.80;;;;;;6215173;23;20079;-80
2023/11/23 13:12:17;;;;;;;6.03;2.55;;;6.60;99.90;;;;;;6214560;23;20162;-81
2023/11/23 13:15:13;;;;;;;2.35;2.15;;;6.60;99.90;;;;;;6212105;23;20431;-81
2023/11/23 13:18:02;;;;;;;9.70;2.60;;;6.50;99.90;;;;;;6215665;23;20031;-81
2023/11/23 13:20:53;;;;;;;2.58;2.38;;;6.50;99.90;;;;;;6213952;23;20288;-79
2023/11/23 13:23:40;;;;;;;31.70;13.32;;;6.50;99.90;;;;;;6213642;23;20080;-81
2023/11/23 13:26:28;;;;;;;10.07;4.43;;;6.70;99.90;;;;;;6210559;23;20028;-81
2023/11/23 13:29:18;;;;;;;12.80;5.60;;;6.70;99.90;;;;;;6190642;23;20087;-80
2023/11/23 13:32:06;;;;;;;5.88;3.05;;;6.70;99.90;;;;;;6213805;23;20032;-81
2023/11/23 13:34:54;;;;;;;12.25;5.65;;;6.70;99.90;;;;;;6213945;23;20021;-81
2023/11/23 13:37:45;;;;;;;12.23;5.82;;;6.60;99.90;;;;;;6215431;23;20040;-82
2023/11/23 13:40:35;;;;;;;10.23;4.28;;;6.60;99.90;;;;;;6214879;23;20031;-82
2023/11/23 13:43:23;;;;;;;10.63;4.97;;;6.50;99.90;;;;;;6215791;23;20071;-82
2023/11/23 13:46:14;;;;;;;18.67;9.20;;;6.30;99.90;;;;;;6218979;23;20017;-82
2023/11/23 13:49:03;;;;;;;15.02;9.40;;;6.20;99.90;;;;;;6221938;23;20024;-81
2023/11/23 13:51:52;;;;;;;17.23;6.22;;;6.10;99.90;;;;;;6228116;23;20056;-75
2023/11/23 13:54:39;;;;;;;22.85;8.35;;;6.00;99.90;;;;;;6206174;23;20354;-79
2023/11/23 13:57:30;;;;;;;7.50;2.90;;;6.00;99.90;;;;;;6218438;23;20051;-81
2023/11/23 14:00:22;;;;;;;6.82;3.38;;;5.90;99.90;;;;;;6211924;23;20028;-80
2023/11/23 14:03:10;;;;;;;6.60;2.20;;;5.80;99.90;;;;;;6212055;23;20035;-82
2023/11/23 14:06:02;;;;;;;11.48;4.18;;;5.80;99.90;;;;;;6212816;23;20300;-83
2023/11/23 14:08:50;;;;;;;11.48;4.35;;;5.80;1.00;;;;;;6214538;23;20039;-79
2023/11/23 14:11:59;;;;;;;8.63;3.17;;;5.80;1.00;;;;;;6215460;23;20035;-84
2023/11/23 14:14:48;;;;;;;4.72;2.25;;;5.70;1.00;;;;;;6198383;23;20024;-82
2023/11/23 14:17:36;;;;;;;5.90;2.80;;;5.60;1.00;;;;;;6216586;23;20020;-82
2023/11/23 14:20:23;;;;;;;2.35;2.15;;;5.60;99.90;;;;;;6214357;23;20384;-82
2023/11/23 14:23:13;;;;;;;3.90;1.83;;;5.60;99.90;;;;;;6215714;23;20083;-82
2023/11/23 14:26:03;;;;;;;6.85;3.47;;;5.50;99.90;;;;;;6212253;23;20430;-82
2023/11/23 14:28:54;;;;;;;3.40;2.33;;;5.60;99.90;;;;;;6214749;23;20125;-83
2023/11/23 14:31:42;;;;;;;6.80;3.05;;;5.60;1.00;;;;;;6216383;23;20020;-81